Epsilon — FGE2266 — position and weather

sailwx.info

Track history (hours):
 
Tides and Currents Weather Stations Pressure Air Temp Water Temp Dewpoint Dewpoint Depression Visibility Wind Speed Wind Dir Waves Ship Positions

Epsilon

Last reported at 2017-Sep-21 07:26 UTC. Time now 2017-Sep-21 09:04 UTC.
Position N 47°39' W 002°45'.

Length 11 m.

Type: Sailing vessel. MMSI: 227616590.

Date/timePositionNaut miles runAvg speedWind from/ knotsBaromVisibWave heightAir tempDewpointWater temp
2017-Sep-21 07:26N 47°39' W 002°45'0 0.0
2017-Sep-21 07:00N 47°39' W 002°45'2 3.9
2017-Sep-21 06:30N 47°37' W 002°47'3 5.9
2017-Sep-21 06:00N 47°36' W 002°51'0 0.1
2017-Sep-21 05:27N 47°36' W 002°51'0 0.0
2017-Sep-21 04:57N 47°36' W 002°51'0 0.0
2017-Sep-21 04:30N 47°36' W 002°51'0 0.0
2017-Sep-21 03:57N 47°36' W 002°51'0 0.0
2017-Sep-21 03:30N 47°36' W 002°51'0 0.0
2017-Sep-21 02:57N 47°36' W 002°51'0 0.0
2017-Sep-21 02:30N 47°36' W 002°51'0 0.0
2017-Sep-21 02:00N 47°36' W 002°51'0 0.0
2017-Sep-21 01:30N 47°36' W 002°51'0 0.0
2017-Sep-21 00:57N 47°36' W 002°51'0 0.0
2017-Sep-21 00:27N 47°36' W 002°51'0 0.0
2017-Sep-20 23:57N 47°36' W 002°51'0 0.0
2017-Sep-20 23:27N 47°36' W 002°51'0 0.0
2017-Sep-20 22:57N 47°36' W 002°51'0 0.0
2017-Sep-20 22:27N 47°36' W 002°51'0 0.0
2017-Sep-20 21:57N 47°36' W 002°51'0 0.0
2017-Sep-20 21:30N 47°36' W 002°51'0 0.0
2017-Sep-20 21:00N 47°36' W 002°51'0 0.0
2017-Sep-20 20:30N 47°36' W 002°51'0 0.0
2017-Sep-20 20:00N 47°36' W 002°51'0 0.0
2017-Sep-20 19:30N 47°36' W 002°51'0 0.0
2017-Sep-20 19:00N 47°36' W 002°51'0 0.0
2017-Sep-20 18:30N 47°36' W 002°51'0 0.0
2017-Sep-20 18:00N 47°36' W 002°51'0 0.0
2017-Sep-20 17:30N 47°36' W 002°51'0 0.0
2017-Sep-20 17:00N 47°36' W 002°51'0 0.0
2017-Sep-20 16:30N 47°36' W 002°51'0 0.0
2017-Sep-20 16:00N 47°36' W 002°51'0 0.0
2017-Sep-20 15:30N 47°36' W 002°51'1 2.6
2017-Sep-20 15:00N 47°35' W 002°52'6 5.5
2017-Sep-20 14:00N 47°30' W 002°53'4 7.0
2017-Sep-20 13:30N 47°27' W 002°51'  
2017-Sep-16 11:31N 47°23' W 002°41'0 4.4
2017-Sep-16 11:30N 47°23' W 002°41'2 4.0
2017-Sep-16 10:59N 47°24' W 002°44'2 3.8
2017-Sep-16 10:30N 47°25' W 002°46'2 4.1
2017-Sep-16 09:59N 47°26' W 002°49'3 5.2
2017-Sep-16 09:30N 47°26' W 002°53'3 4.8
2017-Sep-16 08:57N 47°27' W 002°56'2 5.4
2017-Sep-16 08:30N 47°28' W 002°60'3 6.1
2017-Sep-16 08:00N 47°29' W 003°04'2 2.6
2017-Sep-16 07:24N 47°29' W 003°06'0 0.0
2017-Sep-16 07:00N 47°29' W 003°06'0 0.0
2017-Sep-16 06:30N 47°29' W 003°06'0 0.0
2017-Sep-16 06:00N 47°29' W 003°06'0 0.0
2017-Sep-16 05:30N 47°29' W 003°06'0 0.0
2017-Sep-16 05:00N 47°29' W 003°06'0 0.0
2017-Sep-16 04:30N 47°29' W 003°06'0 0.0
2017-Sep-16 03:54N 47°29' W 003°06'0 0.0
2017-Sep-16 03:30N 47°29' W 003°06'0 0.0
2017-Sep-16 02:57N 47°29' W 003°06'0 0.0
2017-Sep-16 02:30N 47°29' W 003°06'0 0.0
2017-Sep-16 02:00N 47°29' W 003°06'0 0.0
2017-Sep-16 01:30N 47°29' W 003°06'0 0.0
2017-Sep-16 01:00N 47°29' W 003°06'0 0.0
2017-Sep-16 00:30N 47°29' W 003°06'0 0.0
2017-Sep-16 00:00N 47°29' W 003°06'0 0.0
2017-Sep-15 23:30N 47°29' W 003°06'0 0.0
2017-Sep-15 23:00N 47°29' W 003°06'0 0.0
2017-Sep-15 22:30N 47°29' W 003°06'0 0.0
2017-Sep-15 22:00N 47°29' W 003°06'0 0.0
2017-Sep-15 21:30N 47°29' W 003°06'0 0.0
2017-Sep-15 21:00N 47°29' W 003°06'0 0.0
2017-Sep-15 20:30N 47°29' W 003°06'0 0.0
2017-Sep-15 20:00N 47°29' W 003°06'0 0.0
2017-Sep-15 19:30N 47°29' W 003°06'0 0.0
2017-Sep-15 18:57N 47°29' W 003°06'0 0.0
2017-Sep-15 18:30N 47°29' W 003°06'0 0.0
2017-Sep-15 17:57N 47°29' W 003°06'0 0.0
2017-Sep-15 17:30N 47°29' W 003°06'0 0.0
2017-Sep-15 17:00N 47°29' W 003°06'0 0.0
2017-Sep-15 16:30N 47°29' W 003°06'2 3.8
2017-Sep-15 15:59N 47°29' W 003°03'3 6.1
2017-Sep-15 15:29N 47°30' W 002°59'3 6.8
2017-Sep-15 15:01N 47°33' W 002°56'4 7.5
2017-Sep-15 14:31N 47°36' W 002°52'3 6.6
2017-Sep-15 14:00N 47°37' W 002°47'2 4.7
2017-Sep-15 13:30N 47°39' W 002°45'0 0.0
2017-Sep-15 13:00N 47°39' W 002°45'  
Track history (hours):
 
Tides and Currents Weather Stations Pressure Air Temp Water Temp Dewpoint Dewpoint Depression Visibility Wind Speed Wind Dir Waves Ship Positions

Epsilon

Last reported at 2017-Sep-21 07:26 UTC. Time now 2017-Sep-21 09:04 UTC.
Position N 47°39' W 002°45'.

Length 11 m.

Type: Sailing vessel. MMSI: 227616590.

Date/timePositionNaut miles runAvg speedWind from/ knotsBaromVisibWave heightAir tempDewpointWater temp
2017-Sep-21 07:26N 47°39' W 002°45'0 0.0
2017-Sep-21 07:00N 47°39' W 002°45'2 3.9
2017-Sep-21 06:30N 47°37' W 002°47'3 5.9
2017-Sep-21 06:00N 47°36' W 002°51'0 0.1
2017-Sep-21 05:27N 47°36' W 002°51'0 0.0
2017-Sep-21 04:57N 47°36' W 002°51'0 0.0
2017-Sep-21 04:30N 47°36' W 002°51'0 0.0
2017-Sep-21 03:57N 47°36' W 002°51'0 0.0
2017-Sep-21 03:30N 47°36' W 002°51'0 0.0
2017-Sep-21 02:57N 47°36' W 002°51'0 0.0
2017-Sep-21 02:30N 47°36' W 002°51'0 0.0
2017-Sep-21 02:00N 47°36' W 002°51'0 0.0
2017-Sep-21 01:30N 47°36' W 002°51'0 0.0
2017-Sep-21 00:57N 47°36' W 002°51'0 0.0
2017-Sep-21 00:27N 47°36' W 002°51'0 0.0
2017-Sep-20 23:57N 47°36' W 002°51'0 0.0
2017-Sep-20 23:27N 47°36' W 002°51'0 0.0
2017-Sep-20 22:57N 47°36' W 002°51'0 0.0
2017-Sep-20 22:27N 47°36' W 002°51'0 0.0
2017-Sep-20 21:57N 47°36' W 002°51'0 0.0
2017-Sep-20 21:30N 47°36' W 002°51'0 0.0
2017-Sep-20 21:00N 47°36' W 002°51'0 0.0
2017-Sep-20 20:30N 47°36' W 002°51'0 0.0
2017-Sep-20 20:00N 47°36' W 002°51'0 0.0
2017-Sep-20 19:30N 47°36' W 002°51'0 0.0
2017-Sep-20 19:00N 47°36' W 002°51'0 0.0
2017-Sep-20 18:30N 47°36' W 002°51'0 0.0
2017-Sep-20 18:00N 47°36' W 002°51'0 0.0
2017-Sep-20 17:30N 47°36' W 002°51'0 0.0
2017-Sep-20 17:00N 47°36' W 002°51'0 0.0
2017-Sep-20 16:30N 47°36' W 002°51'0 0.0
2017-Sep-20 16:00N 47°36' W 002°51'0 0.0
2017-Sep-20 15:30N 47°36' W 002°51'1 2.6
2017-Sep-20 15:00N 47°35' W 002°52'6 5.5
2017-Sep-20 14:00N 47°30' W 002°53'4 7.0
2017-Sep-20 13:30N 47°27' W 002°51'  
2017-Sep-16 11:31N 47°23' W 002°41'0 4.4
2017-Sep-16 11:30N 47°23' W 002°41'2 4.0
2017-Sep-16 10:59N 47°24' W 002°44'2 3.8
2017-Sep-16 10:30N 47°25' W 002°46'2 4.1
2017-Sep-16 09:59N 47°26' W 002°49'3 5.2
2017-Sep-16 09:30N 47°26' W 002°53'3 4.8
2017-Sep-16 08:57N 47°27' W 002°56'2 5.4
2017-Sep-16 08:30N 47°28' W 002°60'3 6.1
2017-Sep-16 08:00N 47°29' W 003°04'2 2.6
2017-Sep-16 07:24N 47°29' W 003°06'0 0.0
2017-Sep-16 07:00N 47°29' W 003°06'0 0.0
2017-Sep-16 06:30N 47°29' W 003°06'0 0.0
2017-Sep-16 06:00N 47°29' W 003°06'0 0.0
2017-Sep-16 05:30N 47°29' W 003°06'0 0.0
2017-Sep-16 05:00N 47°29' W 003°06'0 0.0
2017-Sep-16 04:30N 47°29' W 003°06'0 0.0
2017-Sep-16 03:54N 47°29' W 003°06'0 0.0
2017-Sep-16 03:30N 47°29' W 003°06'0 0.0
2017-Sep-16 02:57N 47°29' W 003°06'0 0.0
2017-Sep-16 02:30N 47°29' W 003°06'0 0.0
2017-Sep-16 02:00N 47°29' W 003°06'0 0.0
2017-Sep-16 01:30N 47°29' W 003°06'0 0.0
2017-Sep-16 01:00N 47°29' W 003°06'0 0.0
2017-Sep-16 00:30N 47°29' W 003°06'0 0.0
2017-Sep-16 00:00N 47°29' W 003°06'0 0.0
2017-Sep-15 23:30N 47°29' W 003°06'0 0.0
2017-Sep-15 23:00N 47°29' W 003°06'0 0.0
2017-Sep-15 22:30N 47°29' W 003°06'0 0.0
2017-Sep-15 22:00N 47°29' W 003°06'0 0.0
2017-Sep-15 21:30N 47°29' W 003°06'0 0.0
2017-Sep-15 21:00N 47°29' W 003°06'0 0.0
2017-Sep-15 20:30N 47°29' W 003°06'0 0.0
2017-Sep-15 20:00N 47°29' W 003°06'0 0.0
2017-Sep-15 19:30N 47°29' W 003°06'0 0.0
2017-Sep-15 18:57N 47°29' W 003°06'0 0.0
2017-Sep-15 18:30N 47°29' W 003°06'0 0.0
2017-Sep-15 17:57N 47°29' W 003°06'0 0.0
2017-Sep-15 17:30N 47°29' W 003°06'0 0.0
2017-Sep-15 17:00N 47°29' W 003°06'0 0.0
2017-Sep-15 16:30N 47°29' W 003°06'2 3.8
2017-Sep-15 15:59N 47°29' W 003°03'3 6.1
2017-Sep-15 15:29N 47°30' W 002°59'3 6.8
2017-Sep-15 15:01N 47°33' W 002°56'4 7.5
2017-Sep-15 14:31N 47°36' W 002°52'3 6.6
2017-Sep-15 14:00N 47°37' W 002°47'2 4.7
2017-Sep-15 13:30N 47°39' W 002°45'0 0.0
2017-Sep-15 13:00N 47°39' W 002°45'  

Dump ship's entire track history